Terminal Aerodrome Forecast
Issued by NWS

Home | Current Version | Previous Version | Text Only | Print | Product List | Glossary Off
Versions: 1 2 3 4 5 6 7 8 9 10 11 12 13 14 15 16 17

000
FTUS44 KTSA 310500
TAFFYV
TAF
KFYV 310521Z 3106/0106 VRB04KT P6SM -RA OVC050
     FM310900 14005KT 5SM -RA BR BKN015
     FM311500 15005KT P6SM BKN025
     FM312000 15005KT P6SM BKN050=

USA.gov is the U.S. government's official web portal to all federal, state and local government web resources and services.